KCKN/CKN METAR and TAF weather

Enter ICAO airport designator
Station Type Date Time Source
KCKN METAR 2020/07/10 18:15 UTC NOAA

KCKN 101815Z AUTO 31007KT 10SM SCT031 25/17 A2996 RMK AO2


Station Type Date Time Source
KCKN Decoded METAR 2020/07/10 18:15 UTC NOAA

Crookston Municipal Field, MN, United States (KCKN) 47-51N 096-37W
Jul 10, 2020 - 02:15 PM EDT / 2020.07.10 1815 UTC
Wind: from the NW (310 degrees) at 8 MPH (7 KT):0
Visibility: 10 mile(s):0
Sky conditions: partly cloudy
Temperature: 77 F (25 C)
Dew Point: 62 F (17 C)
Relative Humidity: 61%
Pressure (altimeter): 29.96 in. Hg (1014 hPa)
ob: KCKN 101815Z AUTO 31007KT 10SM SCT031 25/17 A2996 RMK AO2
cycle: 18

Station Type Date Time Source
KCKN TAF UTC NOAA

Error!

Example: see airport list